Calgary International Airport

CYYC · 艾伯塔, 加拿大

罗盘
风向 的 风向 170° Calgary International Airport 8/26
风: 5 kt, 2 beaufort

1 kt

5 kt
改变
0 2.000 4.000 6.000 8.000 10.000
FEW 7.600 ft
METAR CYYC 071200Z 17005KT 15SM FEW076 M13/M17 A2964 RMK AC2 SLP133

METAR Calgary International Airport - CYYC/YYC

Calgary International Airport是,加拿大中的大型机场。 该机场有5条跑道: 8/26, 11/29, 17L/35R, 17R/35L 和 17/35. 该领域的国际民航组织标志是CYYC 它的国际航空运输协会代码是YYC.

这份报告是针对2022年12月7日 05:00, 当地时间在Calgary International Airport进行的。

机场观察

风向为170°,速度为5 kt。

可见度为15 mi。

有几云在7.600 ft的高度。 没有观察到天花板。

温度为-13 °C,阵风为-21 °C。 露点为-17 °C,相对湿度为72%。 海平面上的气压为29,64 inHg (QNH)。

白天

今天,太阳从08:25升起,在16:29降落。 这适用于Calgary International Airport,世界夏令时可能有所不同。 当地时间与世界标准时间之间的时差为-7 小时。 当前,没有夏令时有效。

公司介绍

我们没有关于这个机场的公司信息。

体会

到Vliegles.nl去找飞行课程,跳伞和其他飞行体验。 浏览页面,了解Calgary International Airport附近所有可用的活动。 你也可以使用搜索功能来寻找你所在地附近的特定飞行课程、跳伞或其他飞行体验。

跑道

Id 标题 侧风 逆风 侧风 %
8/26 090°-270° 5 kt 98 %
11/29 120°-300° 4 kt 3 kt 77 %
17L/35R 180°-360° 5 kt 17 %
17R/35L 180°-360° 5 kt 17 %
17/35 180°-360° 5 kt 17 %

逆风成分最大的方向会被突出显示,并用于横风计算。 这并不一定意味着这个方向在使用。

乌云

7.600 ft FEW 几云

温度 & 天气

温度 -13 °C
露点 -17 °C
相对湿度 72%
风寒 -21 °C
Kp-index 3 (0-9)

评论

SLP133海平面压力为29,92 inHg (29,92 inHg)
AC2

白天

日出
08:25 (2:53)
中午
12:27
日落
16:29

小工具

你想在你的网站上有一个关于Calgary International Airport的当前航空天气(METAR)的小部件吗?

显示HTML代码

我们和第三方通过cookies跟踪您在我们网站上的互联网行为。如果你继续,我们认为你同意我们的饼干政策